Time,TemperatureF,DewpointF,PressureIn,WindDirection,WindDirectionDegrees,WindSpeedMPH,WindSpeedGustMPH,Humidity,HourlyPrecipIn,Conditions,Clouds,dailyrainin,SoftwareType,DateUTC
2013-06-04 00:10:00,64.0,45.5,29.78,WNW,292,8.9,-999.0,51,-99.99,,,0.00,Acu-Link.com,2013-06-04 04:10:00,
2013-06-04 00:25:00,63.3,45.9,29.78,WNW,292,4.7,-999.0,53,-99.99,,,0.00,Acu-Link.com,2013-06-04 04:25:00,
2013-06-04 00:41:00,62.6,46.7,29.78,SSW,202,3.1,-999.0,56,-99.99,,,0.00,Acu-Link.com,2013-06-04 04:41:00,
2013-06-04 00:56:00,61.9,46.9,29.77,NNW,337,3.8,-999.0,58,-99.99,,,0.00,Acu-Link.com,2013-06-04 04:56:00,
2013-06-04 01:11:00,61.2,47.2,29.78,WSW,247,1.1,-999.0,60,-99.99,,,0.00,Acu-Link.com,2013-06-04 05:11:00,
2013-06-04 01:26:00,60.4,47.4,29.79,WNW,292,4.3,-999.0,62,-99.99,,,0.00,Acu-Link.com,2013-06-04 05:26:00,
2013-06-04 01:42:00,59.7,47.9,29.80,WNW,292,3.1,-999.0,65,-99.99,,,0.00,Acu-Link.com,2013-06-04 05:42:00,
2013-06-04 01:57:00,59.4,48.0,29.80,NW,315,2.7,-999.0,66,-99.99,,,0.00,Acu-Link.com,2013-06-04 05:57:00,
2013-06-04 02:12:00,59.4,47.2,29.80,NNW,337,5.8,-999.0,64,-99.99,,,0.00,Acu-Link.com,2013-06-04 06:12:00,
2013-06-04 02:27:00,58.8,46.7,29.81,WNW,292,4.7,-999.0,64,-99.99,,,0.00,Acu-Link.com,2013-06-04 06:27:00,
2013-06-04 02:43:00,58.3,46.6,29.80,NW,315,6.3,-999.0,65,-99.99,,,0.00,Acu-Link.com,2013-06-04 06:43:00,
2013-06-04 02:58:00,57.7,46.1,29.80,WSW,247,3.1,-999.0,65,-99.99,,,0.00,Acu-Link.com,2013-06-04 06:58:00,
2013-06-04 03:13:00,57.2,45.5,29.81,WSW,247,2.2,-999.0,65,-99.99,,,0.00,Acu-Link.com,2013-06-04 07:13:00,
2013-06-04 03:28:00,57.0,44.5,29.81,West,270,3.1,-999.0,63,-99.99,,,0.00,Acu-Link.com,2013-06-04 07:28:00,
2013-06-04 03:44:00,56.3,43.9,29.82,WNW,292,3.1,-999.0,63,-99.99,,,0.00,Acu-Link.com,2013-06-04 07:44:00,
2013-06-04 03:59:00,54.9,44.1,29.82,WNW,292,3.8,-999.0,67,-99.99,,,0.00,Acu-Link.com,2013-06-04 07:59:00,
2013-06-04 04:15:00,55.2,44.8,29.82,West,270,4.3,-999.0,68,-99.99,,,0.00,Acu-Link.com,2013-06-04 08:15:00,
2013-06-04 04:30:00,54.9,44.5,29.82,South,180,2.7,-999.0,68,-99.99,,,0.00,Acu-Link.com,2013-06-04 08:30:00,
2013-06-04 04:45:00,54.5,44.2,29.82,West,270,4.3,-999.0,68,-99.99,,,0.00,Acu-Link.com,2013-06-04 08:45:00,
2013-06-04 05:00:00,54.1,43.8,29.82,West,270,4.3,-999.0,68,-99.99,,,0.00,Acu-Link.com,2013-06-04 09:00:00,
2013-06-04 05:15:00,53.6,43.7,29.82,SW,225,3.8,-999.0,69,-99.99,,,0.00,Acu-Link.com,2013-06-04 09:15:00,
2013-06-04 05:30:00,53.8,43.5,29.83,NW,315,3.1,-999.0,68,-99.99,,,0.00,Acu-Link.com,2013-06-04 09:30:00,
2013-06-04 06:01:00,55.4,43.8,29.84,West,270,3.8,-999.0,65,-99.99,,,0.00,Acu-Link.com,2013-06-04 10:01:00,
2013-06-04 06:16:00,57.6,44.2,29.85,West,270,2.2,-999.0,61,-99.99,,,0.00,Acu-Link.com,2013-06-04 10:16:00,
2013-06-04 06:31:00,58.1,42.9,29.86,ENE,67,3.1,-999.0,57,-99.99,,,0.00,Acu-Link.com,2013-06-04 10:31:00,
2013-06-04 06:47:00,59.0,42.9,29.86,NE,45,5.1,-999.0,55,-99.99,,,0.00,Acu-Link.com,2013-06-04 10:47:00,
2013-06-04 07:02:00,58.5,42.4,29.86,NW,315,5.1,-999.0,55,-99.99,,,0.00,Acu-Link.com,2013-06-04 11:02:00,
2013-06-04 07:17:00,59.7,43.5,29.86,NNW,337,7.4,-999.0,55,-99.99,,,0.00,Acu-Link.com,2013-06-04 11:17:00,
2013-06-04 07:33:00,61.0,44.2,29.86,NNW,337,6.7,-999.0,54,-99.99,,,0.00,Acu-Link.com,2013-06-04 11:33:00,
2013-06-04 07:48:00,61.9,44.1,29.86,West,270,4.3,-999.0,52,-99.99,,,0.00,Acu-Link.com,2013-06-04 11:48:00,
2013-06-04 08:03:00,60.4,42.7,29.87,North,0,3.8,-999.0,52,-99.99,,,0.00,Acu-Link.com,2013-06-04 12:03:00,
2013-06-04 08:18:00,61.2,43.4,29.87,NW,315,13.0,-999.0,52,-99.99,,,0.00,Acu-Link.com,2013-06-04 12:18:00,
2013-06-04 08:33:00,60.4,42.7,29.87,NNW,337,11.0,-999.0,52,-99.99,,,0.00,Acu-Link.com,2013-06-04 12:33:00,
2013-06-04 08:49:00,62.4,44.0,29.87,NNE,22,7.8,-999.0,51,-99.99,,,0.00,Acu-Link.com,2013-06-04 12:49:00,
2013-06-04 09:04:00,62.6,43.7,29.87,WNW,292,6.7,-999.0,50,-99.99,,,0.00,Acu-Link.com,2013-06-04 13:04:00,
2013-06-04 09:19:00,63.5,44.0,29.88,NNW,337,11.0,-999.0,49,-99.99,,,0.00,Acu-Link.com,2013-06-04 13:19:00,
2013-06-04 09:34:00,64.9,44.8,29.87,WNW,292,12.5,-999.0,48,-99.99,,,0.00,Acu-Link.com,2013-06-04 13:34:00,
2013-06-04 09:50:00,65.3,44.0,29.86,NW,315,8.3,-999.0,46,-99.99,,,0.00,Acu-Link.com,2013-06-04 13:50:00,
2013-06-04 10:05:00,65.3,44.0,29.87,NNE,22,4.7,-999.0,46,-99.99,,,0.00,Acu-Link.com,2013-06-04 14:05:00,
2013-06-04 10:20:00,67.3,44.6,29.86,NNW,337,8.3,-999.0,44,-99.99,,,0.00,Acu-Link.com,2013-06-04 14:20:00,
2013-06-04 10:36:00,66.2,44.2,29.87,West,270,5.8,-999.0,45,-99.99,,,0.00,Acu-Link.com,2013-06-04 14:36:00,
2013-06-04 10:51:00,68.0,44.0,29.88,NNW,337,5.8,-999.0,42,-99.99,,,0.00,Acu-Link.com,2013-06-04 14:51:00,
2013-06-04 11:06:00,67.3,44.0,29.88,SW,225,7.8,-999.0,43,-99.99,,,0.00,Acu-Link.com,2013-06-04 15:06:00,
2013-06-04 11:21:00,68.7,44.7,29.88,WNW,292,8.3,-999.0,42,-99.99,,,0.00,Acu-Link.com,2013-06-04 15:21:00,
2013-06-04 11:37:00,67.6,44.9,29.88,SSW,202,6.7,-999.0,44,-99.99,,,0.00,Acu-Link.com,2013-06-04 15:37:00,
2013-06-04 11:52:00,68.0,45.3,29.88,NW,315,8.3,-999.0,44,-99.99,,,0.00,Acu-Link.com,2013-06-04 15:52:00,
2013-06-04 12:07:00,68.4,43.7,29.89,NE,45,11.0,-999.0,41,-99.99,,,0.00,Acu-Link.com,2013-06-04 16:07:00,
2013-06-04 12:23:00,69.6,44.9,29.88,NW,315,12.5,-999.0,41,-99.99,,,0.00,Acu-Link.com,2013-06-04 16:23:00,
2013-06-04 12:38:00,69.3,44.5,29.89,West,270,5.1,-999.0,41,-99.99,,,0.00,Acu-Link.com,2013-06-04 16:38:00,
2013-06-04 12:53:00,68.0,44.0,29.89,SSW,202,3.8,-999.0,42,-99.99,,,0.00,Acu-Link.com,2013-06-04 16:53:00,
2013-06-04 13:08:00,69.3,44.5,29.89,North,0,6.3,-999.0,41,-99.99,,,0.00,Acu-Link.com,2013-06-04 17:08:00,
2013-06-04 13:24:00,68.2,44.2,29.89,North,0,3.8,-999.0,42,-99.99,,,0.00,Acu-Link.com,2013-06-04 17:24:00,
2013-06-04 13:39:00,68.4,44.4,29.89,NNE,22,11.9,-999.0,42,-99.99,,,0.00,Acu-Link.com,2013-06-04 17:39:00,
2013-06-04 13:54:00,70.2,45.4,29.89,North,0,6.7,-999.0,41,-99.99,,,0.00,Acu-Link.com,2013-06-04 17:54:00,
2013-06-04 14:09:00,70.7,45.2,29.89,NNW,337,5.1,-999.0,40,-99.99,,,0.00,Acu-Link.com,2013-06-04 18:09:00,
2013-06-04 14:24:00,70.7,44.5,29.90,WNW,292,4.7,-999.0,39,-99.99,,,0.00,Acu-Link.com,2013-06-04 18:24:00,
2013-06-04 14:40:00,72.1,45.1,29.89,NW,315,6.7,-999.0,38,-99.99,,,0.00,Acu-Link.com,2013-06-04 18:40:00,
2013-06-04 14:55:00,71.1,44.2,29.90,NW,315,13.4,-999.0,38,-99.99,,,0.00,Acu-Link.com,2013-06-04 18:55:00,
2013-06-04 15:10:00,71.2,45.0,29.90,NW,315,5.8,-999.0,39,-99.99,,,0.00,Acu-Link.com,2013-06-04 19:10:00,
2013-06-04 15:25:00,72.7,44.9,29.90,NNW,337,6.3,-999.0,37,-99.99,,,0.00,Acu-Link.com,2013-06-04 19:25:00,
2013-06-04 15:56:00,72.9,43.6,29.88,NNW,337,11.9,-999.0,35,-99.99,,,0.00,Acu-Link.com,2013-06-04 19:56:00,
2013-06-04 16:11:00,72.3,43.9,29.88,NNE,22,7.4,-999.0,36,-99.99,,,0.00,Acu-Link.com,2013-06-04 20:11:00,
2013-06-04 16:26:00,73.9,44.5,29.89,North,0,11.9,-999.0,35,-99.99,,,0.00,Acu-Link.com,2013-06-04 20:26:00,
2013-06-04 16:42:00,73.9,45.3,29.89,WNW,292,7.4,-999.0,36,-99.99,,,0.00,Acu-Link.com,2013-06-04 20:42:00,
2013-06-04 16:57:00,74.5,44.3,29.88,WSW,247,6.7,-999.0,34,-99.99,,,0.00,Acu-Link.com,2013-06-04 20:57:00,
2013-06-04 17:12:00,74.3,44.1,29.88,West,270,8.9,-999.0,34,-99.99,,,0.00,Acu-Link.com,2013-06-04 21:12:00,
2013-06-04 17:27:00,74.5,45.0,29.89,NE,45,9.8,-999.0,35,-99.99,,,0.00,Acu-Link.com,2013-06-04 21:27:00,
2013-06-04 17:43:00,75.4,45.0,29.89,NW,315,8.3,-999.0,34,-99.99,,,0.00,Acu-Link.com,2013-06-04 21:43:00,
2013-06-04 17:58:00,75.2,44.1,29.89,NNW,337,2.7,-999.0,33,-99.99,,,0.00,Acu-Link.com,2013-06-04 21:58:00,
2013-06-04 18:13:00,74.7,44.4,29.89,North,0,5.1,-999.0,34,-99.99,,,0.00,Acu-Link.com,2013-06-04 22:13:00,
2013-06-04 18:28:00,73.6,43.5,29.90,North,0,6.3,-999.0,34,-99.99,,,0.00,Acu-Link.com,2013-06-04 22:28:00,
2013-06-04 18:44:00,73.6,44.2,29.91,NW,315,4.7,-999.0,35,-99.99,,,0.00,Acu-Link.com,2013-06-04 22:44:00,
2013-06-04 18:59:00,73.0,43.8,29.92,North,0,3.8,-999.0,35,-99.99,,,0.00,Acu-Link.com,2013-06-04 22:59:00,
2013-06-04 19:14:00,72.7,44.2,29.93,North,0,6.3,-999.0,36,-99.99,,,0.00,Acu-Link.com,2013-06-04 23:14:00,
2013-06-04 19:30:00,72.0,44.3,29.93,West,270,3.8,-999.0,37,-99.99,,,0.00,Acu-Link.com,2013-06-04 23:30:00,
2013-06-04 19:45:00,71.1,44.8,29.93,NNE,22,7.4,-999.0,39,-99.99,,,0.00,Acu-Link.com,2013-06-04 23:45:00,
2013-06-04 20:00:00,69.6,45.5,29.94,NNE,22,3.1,-999.0,42,-99.99,,,0.00,Acu-Link.com,2013-06-05 00:00:00,
2013-06-04 20:16:00,68.7,45.3,29.95,SW,225,5.1,-999.0,43,-99.99,,,0.00,Acu-Link.com,2013-06-05 00:16:00,
2013-06-04 20:31:00,67.8,45.7,29.96,NNW,337,1.6,-999.0,45,-99.99,,,0.00,Acu-Link.com,2013-06-05 00:31:00,
2013-06-04 20:46:00,67.3,45.8,29.96,NW,315,3.8,-999.0,46,-99.99,,,0.00,Acu-Link.com,2013-06-05 00:46:00,
2013-06-04 21:01:00,66.9,45.5,29.97,NNW,337,3.8,-999.0,46,-99.99,,,0.00,Acu-Link.com,2013-06-05 01:01:00,
2013-06-04 21:17:00,66.0,45.8,29.99,SSW,202,0.0,-999.0,48,-99.99,,,0.00,Acu-Link.com,2013-06-05 01:17:00,
2013-06-04 21:32:00,64.9,45.8,29.99,North,0,1.1,-999.0,50,-99.99,,,0.00,Acu-Link.com,2013-06-05 01:32:00,
2013-06-04 21:47:00,64.0,46.6,29.99,North,0,0.0,-999.0,53,-99.99,,,0.00,Acu-Link.com,2013-06-05 01:47:00,
2013-06-04 22:03:00,62.8,46.4,30.01,NE,45,0.0,-999.0,55,-99.99,,,0.00,Acu-Link.com,2013-06-05 02:03:00,
2013-06-04 22:18:00,62.2,46.8,30.02,NNE,22,2.2,-999.0,57,-99.99,,,0.00,Acu-Link.com,2013-06-05 02:18:00,
2013-06-04 22:33:00,62.6,47.6,30.02,East,90,4.3,-999.0,58,-99.99,,,0.00,Acu-Link.com,2013-06-05 02:33:00,
2013-06-04 22:49:00,62.8,46.4,30.03,NNE,22,2.7,-999.0,55,-99.99,,,0.00,Acu-Link.com,2013-06-05 02:49:00,
2013-06-04 23:04:00,62.2,46.3,30.03,North,0,1.6,-999.0,56,-99.99,,,0.00,Acu-Link.com,2013-06-05 03:04:00,
2013-06-04 23:19:00,62.2,45.9,30.04,NE,45,4.3,-999.0,55,-99.99,,,0.00,Acu-Link.com,2013-06-05 03:19:00,
2013-06-04 23:34:00,61.9,45.5,30.05,ENE,67,4.7,-999.0,55,-99.99,,,0.00,Acu-Link.com,2013-06-05 03:34:00,
2013-06-04 23:50:00,61.3,45.0,30.05,NNE,22,4.3,-999.0,55,-99.99,,,0.00,Acu-Link.com,2013-06-05 03:50:00,